Ashland, Nebraska
Current Conditions -  °F | °C
As of 7:35 AM on Wednesday 22 Oct 2014 (Local Time) from KMLE Reporting Station
Scattered Clouds Scattered Clouds  
Wind Chill: 53°   Ceiling: Unl
Heat Index: 53°   Visibility: 10mi
Dew Point: 46°   Wind: 9mph
Humidity: 76%   Direction: 20°NNE
Pressure: 30.1"   Gusts: NA
Location:  41.04°N, 96.37°W
Report Text: KMLE 221235Z AUTO 02008KT 10SM SCT070 12/08 A3010 RMK AO2 T01160075
Loading
Personal Weather Stations






























Interactive Weather Map
Tropical Storm Tracking
New forecast layout! Learn more

10-Day Weather Forecast

Advertisements
Track Severe Weather on mobile